Latest Weather Observations for Applethorpe

IDQ60801

Issued at 3:02 pm EST Monday 15 July 2024 (issued every 10 minutes, with the page automatically refreshed every 10 minutes)

About weather observations | Map of weather stations | Latest weather observations for QLD | Other Formats
Station Details ID: 041175 Name: APPLETHORPE Lat: -28.62 Lon: 151.95 Height: 871.6 m
Data from the previous 72 hours. | See also: Recent months at Applethorpe
Date/Time
EST
Temp
°C
App
Temp
°C
Dew
Point
°C
Rel
Hum
%
Delta-T
°C
Wind Press
QNH
hPa
Press
MSL
hPa
Rain since
9am
mm
Dir  Spd
km/h
Gust
km/h
Spd
kts
Gust
kts
15/02:30pm 9.1 3.7 1.5 59 3.3 W 19 32 10 17 1009.9 1009.8 0.0
15/02:00pm 9.7 4.3 1.1 55 3.7 W 19 33 10 18 1010.1 1010.0 0.0
15/01:30pm 9.3 3.7 1.2 57 3.5 W 20 33 11 18 1010.2 1010.1 0.0
15/01:00pm 9.8 4.7 0.9 54 3.9 WSW 17 24 9 13 1010.4 1010.3 0.0
15/12:30pm 7.8 2.3 0.8 61 3.0 WSW 19 37 10 20 1010.7 1010.7 0.0
15/12:00pm 8.3 2.7 1.0 60 3.1 WSW 20 35 11 19 1011.1 1011.0 0.0
15/11:30am 7.5 2.5 1.6 66 2.5 SW 17 32 9 17 1011.6 1011.6 0.0
15/11:00am 8.5 4.4 2.3 65 2.7 WSW 13 22 7 12 1012.0 1012.0 0.0
15/10:30am 7.2 3.2 2.7 73 2.0 WSW 13 26 7 14 1012.5 1012.4 0.0
15/10:00am 6.5 2.0 2.0 73 1.9 WSW 15 26 8 14 1012.7 1012.7 0.0
15/09:30am 5.5 2.6 2.8 83 1.2 SW 7 15 4 8 1012.8 1012.8 0.0
15/09:00am 4.1 1.8 2.8 91 0.6 SW 4 7 2 4 1012.8 1012.8 0.0
15/08:30am 3.2 0.9 2.8 97 0.2 SSW 4 6 2 3 1012.8 1012.8 0.0
15/08:00am 1.9 0.2 1.6 98 0.1 CALM 0 0 0 0 1012.6 1012.6 0.0
15/07:30am -1.2 -3.4 -1.6 97 0.1 CALM 0 0 0 0 1012.4 1012.3 0.0
15/07:00am -2.3 -4.7 -2.8 96 0.1 CALM 0 0 0 0 1012.1 1012.1 0.0
15/06:30am -2.0 -4.3 -2.6 96 0.1 CALM 0 0 0 0 1011.9 1011.9 0.0
15/06:00am -1.4 -3.6 -1.8 97 0.1 CALM 0 0 0 0 1011.6 1011.6 0.0
15/05:30am -1.4 -3.7 -2.0 96 0.1 CALM 0 0 0 0 1011.4 1011.3 0.0
15/05:00am -1.0 -3.2 -1.6 96 0.2 CALM 0 0 0 0 1011.3 1011.2 0.0
15/04:30am -1.0 -3.2 -1.7 95 0.2 CALM 0 4 0 2 1011.2 1011.1 0.0
15/04:00am -0.3 -2.8 -1.0 95 0.2 SSW 2 6 1 3 1011.3 1011.2 0.0
15/03:30am 0.2 -2.6 -0.5 95 0.3 SSW 4 6 2 3 1011.3 1011.2 0.0
15/03:00am 0.5 -2.7 -0.4 94 0.3 SSW 6 7 3 4 1011.5 1011.4 0.0
15/02:30am 1.0 -2.3 0.0 93 0.4 SSW 7 11 4 6 1011.5 1011.4 0.0
15/02:00am 2.0 -1.2 0.7 91 0.5 SW 7 11 4 6 1011.6 1011.6 0.0
15/01:30am 2.5 -1.0 1.0 90 0.6 SW 9 13 5 7 1011.7 1011.7 0.0
15/01:00am 2.8 -1.5 1.3 90 0.6 SW 13 22 7 12 1011.8 1011.8 0.0
15/12:30am 2.9 -1.0 1.4 90 0.6 SW 11 19 6 10 1012.1 1012.1 0.0
15/12:00am 3.3 -1.3 1.8 90 0.6 WSW 15 26 8 14 1012.3 1012.2 0.0
 
Date/Time
EST
Temp
°C
App
Temp
°C
Dew
Point
°C
Rel
Hum
%
Delta-T
°C
Wind Press
QNH
hPa
Press
MSL
hPa
Rain since
9am
mm
Dir  Spd
km/h
Gust
km/h
Spd
kts
Gust
kts
14/11:30pm 3.2 -1.0 1.6 89 0.7 WSW 13 20 7 11 1012.7 1012.7 0.0
14/11:00pm 3.2 -0.7 1.4 88 0.7 WSW 11 20 6 11 1012.8 1012.8 0.0
14/10:30pm 3.8 0.0 1.5 85 1.0 WSW 11 20 6 11 1013.0 1013.0 0.0
14/10:00pm 4.2 -0.5 1.2 81 1.2 WSW 15 24 8 13 1013.3 1013.3 0.0
14/09:30pm 4.5 0.2 1.0 78 1.4 WSW 13 24 7 13 1013.3 1013.3 0.0
14/09:00pm 5.2 0.5 0.8 73 1.8 WSW 15 30 8 16 1013.2 1013.2 0.0
14/08:30pm 5.5 1.2 0.9 72 1.9 WSW 13 30 7 16 1013.2 1013.2 0.0
14/08:00pm 5.8 0.8 1.2 72 1.9 WSW 17 30 9 16 1013.3 1013.3 0.0
14/07:30pm 5.3 1.5 1.6 77 1.6 WSW 11 22 6 12 1013.2 1013.2 0.0
14/07:00pm 5.5 1.4 2.0 78 1.5 WSW 13 24 7 13 1013.0 1013.0 0.0
14/06:30pm 6.0 1.5 2.3 77 1.6 WSW 15 26 8 14 1013.0 1013.0 0.0
14/06:00pm 6.0 1.5 2.1 76 1.7 WSW 15 28 8 15 1013.0 1013.0 0.0
14/05:30pm 6.5 1.6 1.8 72 2.0 WSW 17 28 9 15 1012.8 1012.8 0.0
14/05:00pm 7.3 2.8 2.0 69 2.3 WSW 15 24 8 13 1012.5 1012.4 0.0
14/04:30pm 8.4 4.6 2.0 64 2.8 WSW 11 24 6 13 1012.3 1012.2 0.0
14/04:00pm 9.3 4.8 2.2 61 3.2 WSW 15 28 8 15 1012.1 1012.1 0.0
14/03:30pm 9.9 5.5 2.5 60 3.3 WSW 15 26 8 14 1012.0 1012.0 0.0
14/03:00pm 9.9 5.4 2.3 59 3.4 WSW 15 28 8 15 1012.0 1012.0 0.0
14/02:30pm 10.0 5.0 1.6 56 3.7 WSW 17 28 9 15 1012.0 1012.0 0.0
14/02:00pm 10.2 5.7 2.3 58 3.5 WSW 15 26 8 14 1011.9 1011.9 0.0
14/01:30pm 10.0 5.1 1.9 57 3.6 WSW 17 26 9 14 1011.9 1011.9 0.0
14/01:00pm 9.9 5.0 2.0 58 3.5 WSW 17 26 9 14 1012.1 1012.1 0.0
14/12:30pm 10.1 5.7 2.5 59 3.4 W 15 24 8 13 1012.5 1012.4 0.0
14/12:00pm 9.9 5.3 1.5 56 3.7 W 15 24 8 13 1012.8 1012.8 0.0
14/11:30am 9.8 5.0 0.4 52 4.0 SW 15 24 8 13 1013.3 1013.3 0.0
14/11:00am 9.2 4.5 1.1 57 3.5 WSW 15 24 8 13 1014.1 1014.1 0.0
14/10:30am 8.8 4.3 2.2 63 2.9 WSW 15 24 8 13 1014.4 1014.4 0.0
14/10:00am 8.1 4.0 2.4 67 2.5 SW 13 22 7 12 1014.5 1014.6 0.0
14/09:30am 7.1 3.4 2.4 72 2.1 SW 11 22 6 12 1014.8 1014.8 0.0
14/09:00am 6.0 2.0 2.6 79 1.5 WSW 13 22 7 12 1014.8 1014.8 0.0
14/08:30am 5.1 1.1 2.8 85 1.0 SW 13 22 7 12 1014.6 1014.7 0.0
14/08:00am 4.3 0.2 2.2 86 0.9 WSW 13 22 7 12 1014.3 1014.3 0.0
14/07:30am 3.6 0.2 2.0 89 0.7 WSW 9 15 5 8 1013.9 1013.9 0.0
14/07:00am 3.7 -0.4 2.4 91 0.6 SW 13 24 7 13 1013.6 1013.6 0.0
14/06:30am 3.5 0.2 2.3 92 0.5 SW 9 17 5 9 1013.2 1013.2 0.0
14/06:00am 3.6 0.7 2.4 92 0.5 SW 7 13 4 7 1013.1 1013.1 0.0
14/05:30am 3.8 0.9 2.6 92 0.5 SW 7 15 4 8 1012.9 1012.9 0.0
14/05:00am 4.2 0.9 2.7 90 0.6 SW 9 13 5 7 1012.7 1012.7 0.0
14/04:30am 5.1 2.0 3.4 89 0.7 SW 9 17 5 9 1012.6 1012.6 0.0
14/04:00am 5.1 1.6 3.6 90 0.7 WSW 11 17 6 9 1012.7 1012.7 0.0
14/03:30am 5.7 2.7 4.0 89 0.8 WSW 9 15 5 8 1012.9 1012.9 0.0
14/03:00am 6.1 3.1 4.1 87 0.9 SW 9 13 5 7 1012.9 1012.9 0.0
14/02:30am 6.2 2.9 4.4 88 0.8 SW 11 20 6 11 1013.2 1013.2 0.0
14/02:00am 6.3 2.6 4.5 88 0.8 WSW 13 22 7 12 1013.1 1013.1 0.0
14/01:30am 6.4 2.3 4.4 87 0.9 WSW 15 24 8 13 1013.1 1013.1 0.0
14/01:00am 6.4 2.7 4.2 86 1.0 SW 13 20 7 11 1013.0 1013.0 0.0
14/12:30am 6.7 3.7 4.2 84 1.1 SW 9 17 5 9 1013.1 1013.1 0.0
14/12:00am 6.8 3.5 4.6 86 1.0 SW 11 20 6 11 1013.5 1013.4 0.0
 
Date/Time
EST
Temp
°C
App
Temp
°C
Dew
Point
°C
Rel
Hum
%
Delta-T
°C
Wind Press
QNH
hPa
Press
MSL
hPa
Rain since
9am
mm
Dir  Spd
km/h
Gust
km/h
Spd
kts
Gust
kts
13/11:30pm 6.5 3.6 4.5 87 0.9 SW 9 15 5 8 1013.5 1013.4 0.0
13/11:00pm 6.4 3.0 4.1 85 1.0 SW 11 17 6 9 1013.6 1013.6 0.0
13/10:30pm 6.8 3.9 4.8 87 0.9 SW 9 17 5 9 1013.9 1013.9 0.0
13/10:00pm 6.9 4.1 5.1 88 0.8 SW 9 17 5 9 1013.9 1013.9 0.0
13/09:30pm 7.0 3.4 5.2 88 0.8 SW 13 19 7 10 1013.8 1013.8 0.0
13/09:00pm 7.3 4.1 5.3 87 0.9 SW 11 22 6 12 1013.8 1013.8 0.0
13/08:30pm 7.2 3.7 5.3 88 0.9 SW 13 20 7 11 1013.6 1013.6 0.0
13/08:00pm 7.1 3.1 5.1 87 0.9 WSW 15 26 8 14 1013.3 1013.3 0.0
13/07:30pm 7.1 3.1 4.9 86 1.0 WSW 15 28 8 15 1013.2 1013.2 0.0
13/07:00pm 6.8 3.5 4.5 85 1.1 SW 11 20 6 11 1013.0 1013.0 0.0
13/06:30pm 7.2 3.5 4.2 81 1.4 WSW 13 24 7 13 1012.6 1012.6 0.0
13/06:00pm 7.6 3.8 4.0 78 1.6 WSW 13 24 7 13 1012.1 1012.1 0.0
13/05:30pm 8.0 4.2 4.0 76 1.8 WSW 13 24 7 13 1011.8 1011.8 0.0
13/05:00pm 8.3 4.5 3.8 73 2.1 WSW 13 19 7 10 1011.5 1011.4 0.0
13/04:30pm 8.8 4.6 3.6 70 2.4 WSW 15 24 8 13 1011.4 1011.3 0.0
13/04:00pm 9.6 5.0 3.6 66 2.8 WSW 17 30 9 16 1011.3 1011.2 0.0
13/03:30pm 9.4 4.8 3.8 68 2.6 WSW 17 28 9 15 1011.4 1011.3 0.0
13/03:00pm 10.1 5.1 3.6 64 3.0 WSW 19 30 10 16 1011.1 1011.0 0.0
13/02:30pm 11.4 7.2 3.7 59 3.6 WSW 15 26 8 14 1010.9 1010.9 0.0
13/02:00pm 9.3 4.1 2.6 63 3.0 WSW 19 37 10 20 1010.9 1010.9 0.0
13/01:30pm 9.8 5.7 4.4 69 2.5 SW 15 24 8 13 1010.8 1010.8 0.0
13/01:00pm 9.7 5.3 4.5 70 2.4 WSW 17 28 9 15 1011.1 1011.0 0.0
13/12:30pm 9.2 4.7 4.4 72 2.2 SW 17 26 9 14 1011.5 1011.4 0.0
13/12:00pm 9.6 6.6 6.0 78 1.7 WSW 11 20 6 11 1011.9 1011.9 0.0
13/11:30am 7.7 4.6 5.7 87 0.9 SW 11 20 6 11 1012.5 1012.4 0.0
13/11:00am 8.4 5.4 6.2 86 1.1 W 11 20 6 11 1012.9 1012.9 0.0
13/10:30am 7.0 4.4 6.3 95 0.3 WSW 9 19 5 10 1013.2 1013.2 0.0
13/10:00am 6.8 3.8 6.2 96 0.3 W 11 19 6 10 1013.2 1013.2 0.0
13/09:30am 6.3 4.0 5.9 97 0.2 SW 7 11 4 6 1013.3 1013.3 0.0
13/09:00am 5.9 3.2 5.5 97 0.2 SW 9 20 5 11 1013.1 1013.1 0.0
13/08:30am 6.1 3.8 5.7 97 0.2 SW 7 13 4 7 1012.9 1012.9 0.0
13/08:00am 5.9 3.7 5.5 97 0.2 W 6 11 3 6 1012.7 1012.7 0.0
13/07:30am 5.4 3.1 5.0 97 0.2 SW 6 11 3 6 1012.3 1012.2 0.0
13/07:00am 3.9 2.5 3.5 97 0.2 CALM 0 4 0 2 1012.3 1012.2 0.0
13/06:30am 2.5 0.5 2.1 97 0.2 NW 2 4 1 2 1011.8 1011.8 0.0
13/06:00am 2.1 0.0 1.7 97 0.2 NW 2 2 1 1 1011.3 1011.2 0.0
13/05:30am 1.6 -0.2 1.0 96 0.2 CALM 0 0 0 0 1010.6 1010.6 0.0
13/05:00am 1.8 -0.4 1.2 96 0.2 SW 2 4 1 2 1010.6 1010.6 0.0
13/04:30am 2.2 -0.3 1.6 96 0.2 SW 4 4 2 2 1010.3 1010.2 0.0
13/04:00am 2.1 -0.4 1.4 95 0.3 WSW 4 4 2 2 1010.4 1010.3 0.0
13/03:30am 2.1 0.3 1.1 93 0.4 CALM 0 4 0 2 1010.5 1010.4 0.0
13/03:00am 3.2 1.2 2.3 94 0.4 WNW 2 4 1 2 1010.7 1010.7 0.0
13/02:30am 3.9 2.4 2.9 93 0.4 CALM 0 0 0 0 1010.7 1010.7 0.0
13/02:00am 4.2 2.6 2.7 90 0.6 CALM 0 0 0 0 1011.2 1011.1 0.0
13/01:30am 5.3 3.9 3.8 90 0.7 CALM 0 0 0 0 1011.2 1011.1 0.0
13/01:00am 6.0 4.3 4.2 88 0.8 WSW 2 4 1 2 1011.6 1011.6 0.0
13/12:30am 6.1 4.0 4.1 87 0.9 SSW 4 7 2 4 1011.7 1011.7 0.0
13/12:00am 7.0 4.6 4.5 84 1.1 SW 6 11 3 6 1012.3 1012.2 0.0
 
Date/Time
EST
Temp
°C
App
Temp
°C
Dew
Point
°C
Rel
Hum
%
Delta-T
°C
Wind Press
QNH
hPa
Press
MSL
hPa
Rain since
9am
mm
Dir  Spd
km/h
Gust
km/h
Spd
kts
Gust
kts
12/11:30pm 7.4 5.0 4.4 81 1.4 WSW 6 11 3 6 1012.5 1012.4 0.0
12/11:00pm 7.7 5.2 4.5 80 1.5 WSW 7 15 4 8 1012.6 1012.6 0.0
12/10:30pm 8.1 4.8 4.7 79 1.6 WSW 11 19 6 10 1012.7 1012.7 0.0
12/10:00pm 8.0 4.8 5.1 82 1.4 WSW 11 15 6 8 1012.7 1012.7 0.0
12/09:30pm 8.0 5.2 5.1 82 1.4 WSW 9 17 5 9 1012.4 1012.3 0.0
12/09:00pm 8.1 5.3 5.0 81 1.5 WSW 9 15 5 8 1012.5 1012.4 0.0
12/08:30pm 8.3 5.4 4.9 79 1.6 WSW 9 13 5 7 1012.6 1012.6 0.0
12/08:00pm 8.7 6.2 4.9 77 1.8 W 7 13 4 7 1012.6 1012.6 0.0
12/07:30pm 9.1 6.6 4.7 74 2.1 WSW 7 13 4 7 1012.5 1012.4 0.0
12/07:00pm 9.6 6.7 4.8 72 2.3 WSW 9 13 5 7 1012.6 1012.6 0.0
12/06:30pm 10.4 7.6 5.2 70 2.5 WSW 9 15 5 8 1012.6 1012.6 0.0
12/06:00pm 10.7 8.1 4.2 64 3.1 W 7 11 4 6 1012.5 1012.4 0.0
12/05:30pm 11.1 8.3 2.9 57 3.8 W 7 13 4 7 1012.4 1012.3 0.0
12/05:00pm 12.2 9.0 3.2 54 4.2 WSW 9 13 5 7 1012.0 1012.0 0.0
12/04:30pm 13.3 9.9 1.9 46 5.2 WSW 9 17 5 9 1011.9 1011.9 0.0
12/04:00pm 14.5 11.0 3.3 47 5.3 W 11 20 6 11 1011.8 1011.8 0.0
12/03:30pm 15.1 11.3 2.0 41 6.1 WSW 11 19 6 10 1011.9 1011.9 0.0

Other formats

Comma delimited format used in spreadsheet applications
http://www.bom.gov.au/fwo/IDQ60801/IDQ60801.94553.axf

JavaScript Object Notation format (JSON) in row-major order
http://www.bom.gov.au/fwo/IDQ60801/IDQ60801.94553.json

Data quality

Most of these data are generated automatically and are frequently updated. Quality checks on data are not normally performed. It is possible for incorrect values to appear. Refer to information at About Latest Weather Observations and please check the disclaimer before using these data.